Time;durP1;ratioP1;P1;durP2;ratioP2;P2;SDS_P1;SDS_P2;PMS_P1;PMS_P2;Temp;Humidity;BMP_temperature;BMP_pressure;BME280_temperature;BME280_humidity;BME280_pressure;Samples;Min_cycle;Max_cycle;Signal;HPM_P1;HPM_P2
2021/10/01 00:00:28;;;;;;;64.50;41.60;;;;;;;7.78;71.58;101681.70;116893;1191;21873;-78
2021/10/01 00:03:08;;;;;;;55.30;41.10;;;;;;;7.75;71.51;101683.70;116896;1191;23461;-77
2021/10/01 00:05:39;;;;;;;58.40;42.20;;;;;;;7.71;71.53;101682.40;116855;1191;21901;-78
2021/10/01 00:08:09;;;;;;;55.20;38.90;;;;;;;7.67;71.51;101681.18;116875;1191;23536;-78
2021/10/01 00:10:38;;;;;;;56.10;38.60;;;;;;;7.61;71.50;101679.69;116914;1189;21888;-78
2021/10/01 00:13:07;;;;;;;57.10;41.20;;;;;;;7.56;71.50;101680.98;117188;1188;22346;-78
2021/10/01 00:15:37;;;;;;;48.20;36.10;;;;;;;7.48;71.49;101684.81;117063;1188;22286;-78
2021/10/01 00:18:11;;;;;;;52.70;37.80;;;;;;;7.40;71.66;101683.69;117225;1188;21899;-78
2021/10/01 00:20:40;;;;;;;56.60;36.50;;;;;;;7.39;72.10;101684.30;117137;1188;23353;-77
2021/10/01 00:23:09;;;;;;;51.70;36.00;;;;;;;7.42;72.33;101686.52;116918;1190;23690;-78
2021/10/01 00:25:38;;;;;;;53.60;37.90;;;;;;;7.45;72.40;101686.81;116874;1190;22344;-78
2021/10/01 00:28:07;;;;;;;60.30;39.80;;;;;;;7.45;72.25;101687.52;116830;1190;23534;-77
2021/10/01 00:30:37;;;;;;;55.10;37.20;;;;;;;7.42;71.94;101685.48;116975;1190;21889;-78
2021/10/01 00:33:07;;;;;;;50.70;36.10;;;;;;;7.35;71.79;101681.11;116899;1190;21886;-79
2021/10/01 00:35:36;;;;;;;48.90;36.20;;;;;;;7.27;71.78;101678.88;116819;1190;21876;-78
2021/10/01 00:38:05;;;;;;;55.30;34.90;;;;;;;7.22;71.94;101677.15;116837;1187;21893;-78
2021/10/01 00:40:34;;;;;;;49.40;35.90;;;;;;;7.20;72.16;101676.45;116849;1188;23524;-78
2021/10/01 00:43:04;;;;;;;46.40;34.80;;;;;;;7.21;72.45;101676.86;117166;1188;21955;-77
2021/10/01 00:45:33;;;;;;;49.70;34.80;;;;;;;7.24;72.65;101672.99;117233;1188;21887;-77
2021/10/01 00:48:03;;;;;;;45.70;35.00;;;;;;;7.26;72.66;101674.95;117114;1188;22615;-78
2021/10/01 00:50:32;;;;;;;54.90;37.70;;;;;;;7.21;72.25;101676.85;117107;1188;23534;-78
2021/10/01 00:53:03;;;;;;;47.60;37.80;;;;;;;7.14;72.27;101677.91;117125;1188;23426;-78
2021/10/01 00:55:32;;;;;;;51.20;37.00;;;;;;;7.09;72.40;101679.54;117199;1188;21885;-78
2021/10/01 00:58:01;;;;;;;49.60;35.60;;;;;;;7.05;72.55;101677.00;117080;1188;22004;-77
2021/10/01 01:00:31;;;;;;;49.60;35.00;;;;;;;7.02;72.66;101678.41;117000;1187;21994;-77
2021/10/01 01:03:04;;;;;;;50.60;35.80;;;;;;;7.04;73.01;101679.85;117060;1188;22638;-77
2021/10/01 01:05:58;;;;;;;48.50;35.10;;;;;;;7.09;73.09;101678.31;117076;1188;22616;-78
2021/10/01 01:08:37;;;;;;;44.60;34.90;;;;;;;7.11;73.00;101674.83;117086;1188;22333;-77
2021/10/01 01:11:26;;;;;;;46.10;36.10;;;;;;;7.10;72.86;101677.01;117124;1188;23574;-78
2021/10/01 01:14:06;;;;;;;45.40;36.00;;;;;;;7.08;72.78;101677.88;116857;1190;21888;-78
2021/10/01 01:16:37;;;;;;;51.00;36.30;;;;;;;7.02;72.55;101674.23;116877;1190;21881;-78
2021/10/01 01:19:16;;;;;;;51.50;35.60;;;;;;;7.00;72.77;101673.54;116781;1189;21882;-76
2021/10/01 01:21:57;;;;;;;45.90;34.70;;;;;;;7.00;73.06;101676.98;116891;1189;22936;-77
2021/10/01 01:25:00;;;;;;;51.40;37.40;;;;;;;7.04;73.22;101676.73;116912;1190;23532;-77
2021/10/01 01:28:07;;;;;;;;;;;;;;;7.04;73.10;101677.75;116810;1191;23513;-77
2021/10/01 01:30:49;;;;;;;46.60;33.00;;;;;;;6.94;73.10;101677.44;116791;1192;21977;-77
2021/10/01 01:33:23;;;;;;;45.30;34.00;;;;;;;6.92;73.03;101669.42;116815;1187;22373;-78
2021/10/01 01:35:57;;;;;;;43.70;33.00;;;;;;;6.93;72.98;101667.23;116984;1191;21906;-78
2021/10/01 01:38:39;;;;;;;50.80;34.30;;;;;;;6.93;72.93;101662.98;116784;1191;22843;-78
2021/10/01 01:41:11;;;;;;;44.20;32.70;;;;;;;6.94;72.89;101664.68;116792;1183;22298;-78
2021/10/01 01:43:42;;;;;;;;;;;;;;;6.94;72.84;101656.80;116815;1191;21851;-77
2021/10/01 01:46:12;;;;;;;43.10;30.20;;;;;;;6.87;72.92;101655.90;116777;1191;21901;-77
2021/10/01 01:48:43;;;;;;;44.50;32.90;;;;;;;6.86;72.99;101651.98;116879;1191;21877;-78
2021/10/01 01:51:14;;;;;;;42.90;31.20;;;;;;;6.88;73.02;101649.90;116660;1191;21914;-78
2021/10/01 01:53:45;;;;;;;45.30;33.60;;;;;;;6.89;73.00;101645.84;116774;1191;22912;-78
2021/10/01 01:56:15;;;;;;;43.00;32.20;;;;;;;6.87;72.87;101644.71;116513;1190;21879;-78
2021/10/01 01:58:46;;;;;;;44.90;32.50;;;;;;;6.83;72.77;101651.64;116641;1182;21933;-78
2021/10/01 02:01:21;;;;;;;45.80;32.50;;;;;;;6.79;72.83;101653.86;116501;1193;23533;-78
2021/10/01 02:04:06;;;;;;;42.00;31.80;;;;;;;6.76;73.01;101651.59;116522;1193;23053;-78
2021/10/01 02:06:37;;;;;;;44.60;31.70;;;;;;;6.77;73.16;101653.27;116544;1190;23553;-78
2021/10/01 02:09:07;;;;;;;45.00;32.70;;;;;;;6.79;73.28;101653.83;116845;1191;22913;-78
2021/10/01 02:11:43;;;;;;;43.70;31.40;;;;;;;6.81;73.20;101652.83;116833;1191;22221;-79
2021/10/01 02:14:22;;;;;;;43.20;31.90;;;;;;;6.78;72.93;101654.14;116869;1188;21936;-78
2021/10/01 02:16:56;;;;;;;41.50;31.30;;;;;;;6.73;72.82;101656.40;117125;1188;21887;-78
2021/10/01 02:19:31;;;;;;;44.10;32.00;;;;;;;6.66;72.63;101655.71;117153;1188;22915;-78
2021/10/01 02:22:04;;;;;;;42.80;32.10;;;;;;;6.55;72.54;101655.42;117100;1188;22848;-78
2021/10/01 02:24:37;;;;;;;48.70;33.20;;;;;;;6.45;72.78;101654.25;117140;1188;22973;-78
2021/10/01 02:27:13;;;;;;;49.10;32.90;;;;;;;6.37;72.84;101654.09;117076;1188;21893;-79
2021/10/01 02:30:09;;;;;;;38.90;32.00;;;;;;;6.28;73.05;101652.22;117207;1188;22196;-78
2021/10/01 02:32:48;;;;;;;44.20;33.80;;;;;;;6.27;73.61;101648.45;117106;1188;21873;-77
2021/10/01 02:35:17;;;;;;;38.80;32.10;;;;;;;6.31;73.90;101650.08;117074;1188;21906;-79
2021/10/01 02:37:50;;;;;;;42.80;33.70;;;;;;;6.33;73.74;101646.48;116845;1191;21916;-79
2021/10/01 02:40:21;;;;;;;41.10;33.10;;;;;;;6.32;73.72;101645.48;116793;1191;21879;-78
2021/10/01 02:42:50;;;;;;;37.80;30.00;;;;;;;6.32;73.75;101644.11;116830;1191;22018;-78
2021/10/01 02:45:21;;;;;;;45.10;34.30;;;;;;;6.32;73.71;101645.86;116796;1191;21905;-78
2021/10/01 02:47:51;;;;;;;43.90;34.00;;;;;;;6.32;73.74;101646.55;116804;1191;22005;-78
2021/10/01 02:50:22;;;;;;;40.50;35.80;;;;;;;6.30;73.61;101645.64;116780;1191;21887;-78
2021/10/01 02:53:26;;;;;;;43.00;34.10;;;;;;;6.25;73.50;101643.34;116772;1191;22865;-78
2021/10/01 02:56:20;;;;;;;41.50;33.80;;;;;;;6.20;73.68;101639.71;116908;1188;23460;-78
2021/10/01 02:58:57;;;;;;;39.00;31.30;;;;;;;6.21;74.06;101637.69;116845;1190;22649;-78
2021/10/01 03:01:29;;;;;;;43.70;33.20;;;;;;;6.23;74.09;101640.36;116590;1192;21887;-78
2021/10/01 03:04:09;;;;;;;40.90;33.50;;;;;;;6.23;73.93;101637.73;116547;1192;21917;-78
2021/10/01 03:06:45;;;;;;;39.30;32.70;;;;;;;6.25;74.08;101636.00;116647;1190;21900;-77
2021/10/01 03:09:16;;;;;;;38.40;31.80;;;;;;;6.27;74.07;101636.03;116558;1192;21895;-78
2021/10/01 03:11:47;;;;;;;45.80;32.80;;;;;;;6.24;73.78;101635.93;116551;1193;23007;-77
2021/10/01 03:14:19;;;;;;;42.00;31.80;;;;;;;6.15;73.46;101637.11;116651;1192;22764;-77
2021/10/01 03:16:50;;;;;;;40.00;32.20;;;;;;;6.03;73.31;101633.52;116575;1192;21892;-77
2021/10/01 03:19:22;;;;;;;39.90;31.90;;;;;;;5.97;73.61;101633.25;116582;1190;21914;-77
2021/10/01 03:21:55;;;;;;;42.90;33.60;;;;;;;5.97;74.00;101634.98;116856;1190;22902;-78
2021/10/01 03:24:24;;;;;;;47.70;34.30;;;;;;;5.99;74.06;101637.15;116948;1190;21880;-77
2021/10/01 03:26:54;;;;;;;47.60;33.90;;;;;;;5.98;74.02;101631.27;116937;1190;23470;-78
2021/10/01 03:29:24;;;;;;;45.00;34.40;;;;;;;5.96;73.98;101627.25;116830;1190;21892;-78
2021/10/01 03:31:55;;;;;;;43.20;32.80;;;;;;;5.94;73.99;101625.63;116849;1190;22367;-78
2021/10/01 03:34:24;;;;;;;41.80;33.30;;;;;;;5.94;74.08;101623.88;116544;1191;21919;-78
2021/10/01 03:37:05;;;;;;;38.90;32.50;;;;;;;5.94;74.20;101624.88;116808;1188;21879;-77
2021/10/01 03:39:34;;;;;;;44.10;35.30;;;;;;;5.94;74.12;101621.42;116852;1191;22892;-77
2021/10/01 03:42:07;;;;;;;46.20;34.70;;;;;;;5.92;73.95;101623.45;116803;1191;21902;-77
2021/10/01 03:44:36;;;;;;;49.60;38.00;;;;;;;5.86;73.74;101623.28;116826;1187;21951;-77
2021/10/01 03:47:06;;;;;;;43.40;34.00;;;;;;;5.77;73.62;101621.87;116782;1191;21891;-77
2021/10/01 03:49:35;;;;;;;49.80;35.90;;;;;;;5.69;73.60;101618.92;116820;1191;21914;-77
2021/10/01 03:52:05;;;;;;;40.80;32.60;;;;;;;5.61;73.62;101620.16;116851;1188;21871;-78
2021/10/01 03:54:36;;;;;;;43.80;33.50;;;;;;;5.52;73.69;101612.34;116859;1187;21871;-77
2021/10/01 03:57:05;;;;;;;44.70;34.40;;;;;;;5.43;73.67;101613.18;116802;1190;21902;-77
2021/10/01 03:59:34;;;;;;;48.80;38.70;;;;;;;5.35;73.90;101611.94;116853;1187;21927;-77
2021/10/01 04:02:03;;;;;;;45.30;36.50;;;;;;;5.33;74.29;101612.11;116888;1190;21911;-77
2021/10/01 04:04:33;;;;;;;47.50;36.20;;;;;;;5.34;74.58;101608.15;116811;1190;21885;-78
2021/10/01 04:07:03;;;;;;;47.40;37.90;;;;;;;5.37;74.57;101607.80;116944;1190;21901;-77
2021/10/01 04:09:32;;;;;;;42.50;35.50;;;;;;;5.37;74.68;101607.58;116890;1190;23442;-77
2021/10/01 04:12:01;;;;;;;46.80;36.50;;;;;;;5.40;74.78;101608.66;116827;1188;23547;-78
2021/10/01 04:14:35;;;;;;;45.20;35.20;;;;;;;5.43;74.83;101608.98;117112;1188;21921;-78
2021/10/01 04:17:05;;;;;;;;;;;;;;;5.46;74.83;101611.02;116861;1190;22905;-78
2021/10/01 04:19:34;;;;;;;48.50;36.30;;;;;;;5.40;74.99;101608.10;116857;1190;21889;-78
2021/10/01 04:22:06;;;;;;;43.40;35.70;;;;;;;5.41;75.02;101604.00;116867;1189;22618;-78
2021/10/01 04:24:55;;;;;;;44.30;36.90;;;;;;;5.45;74.95;101605.86;116837;1190;23094;-78
2021/10/01 04:27:24;;;;;;;46.70;38.00;;;;;;;5.46;74.70;101613.30;116913;1177;21882;-77
2021/10/01 04:29:53;;;;;;;45.60;38.30;;;;;;;5.43;74.36;101608.80;116921;1187;23464;-77
2021/10/01 04:32:23;;;;;;;49.40;39.30;;;;;;;5.39;74.36;101605.53;116769;1190;21886;-78
2021/10/01 04:35:00;;;;;;;;;;;;;;;5.39;74.47;101605.55;116844;1192;22927;-77
2021/10/01 04:37:30;;;;;;;48.60;37.80;;;;;;;5.36;75.01;101608.19;116783;1192;21888;-78
2021/10/01 04:40:01;;;;;;;49.60;40.80;;;;;;;5.42;75.17;101606.41;116513;1190;21915;-78
2021/10/01 04:42:35;;;;;;;49.70;37.20;;;;;;;5.48;75.07;101605.45;116748;1192;21946;-77
2021/10/01 04:45:06;;;;;;;46.00;39.10;;;;;;;5.51;74.83;101605.13;116835;1192;21892;-79
2021/10/01 04:47:37;;;;;;;51.90;41.50;;;;;;;5.52;74.71;101605.94;116818;1184;21902;-78
2021/10/01 04:50:07;;;;;;;51.10;39.80;;;;;;;5.53;74.70;101610.05;116849;1190;22054;-78
2021/10/01 04:52:37;;;;;;;50.30;40.00;;;;;;;5.54;74.66;101608.05;116868;1187;22067;-78
2021/10/01 04:55:08;;;;;;;60.90;43.70;;;;;;;5.55;74.57;101615.13;116930;1190;22062;-78
2021/10/01 04:57:38;;;;;;;53.40;42.60;;;;;;;5.56;74.48;101616.14;117012;1187;21882;-78
2021/10/01 05:00:28;;;;;;;64.50;46.80;;;;;;;5.55;74.42;101612.20;117189;1188;21913;-77
2021/10/01 05:03:18;;;;;;;55.30;44.30;;;;;;;5.53;74.41;101611.92;116845;1191;21896;-77
2021/10/01 05:06:25;;;;;;;62.80;45.20;;;;;;;5.52;74.48;101616.04;116552;1186;21905;-77
2021/10/01 05:09:13;;;;;;;52.70;41.40;;;;;;;5.51;74.43;101616.27;116567;1194;22181;-76
2021/10/01 05:12:01;;;;;;;59.30;43.00;;;;;;;5.51;74.42;101612.77;116497;1193;21906;-77
2021/10/01 05:14:49;;;;;;;53.20;40.90;;;;;;;5.53;74.53;101613.35;116566;1193;23620;-78
2021/10/01 05:17:39;;;;;;;57.30;40.80;;;;;;;5.54;74.51;101617.48;116514;1194;21999;-79
2021/10/01 05:20:27;;;;;;;53.50;43.00;;;;;;;5.56;74.48;101617.30;116603;1190;22930;-77
2021/10/01 05:23:11;;;;;;;53.20;41.40;;;;;;;5.58;74.55;101619.61;116961;1190;22002;-79
2021/10/01 05:25:43;;;;;;;51.30;40.40;;;;;;;5.61;74.51;101620.69;116991;1190;22254;-78
2021/10/01 05:28:12;;;;;;;47.00;38.60;;;;;;;5.56;74.11;101618.39;116936;1190;21878;-78
2021/10/01 05:30:44;;;;;;;50.30;39.30;;;;;;;5.50;74.00;101620.55;116912;1190;21909;-78
2021/10/01 05:33:14;;;;;;;52.10;40.50;;;;;;;5.47;74.16;101620.25;116900;1187;21929;-80
2021/10/01 05:35:45;;;;;;;48.50;39.60;;;;;;;5.45;74.32;101616.16;117102;1189;23597;-79
2021/10/01 05:38:15;;;;;;;51.20;42.00;;;;;;;5.47;74.53;101616.23;117210;1187;21893;-80
2021/10/01 05:40:45;;;;;;;49.50;39.10;;;;;;;5.48;74.63;101619.12;117210;1188;22955;-81
2021/10/01 05:43:15;;;;;;;51.20;40.70;;;;;;;5.48;74.55;101619.48;117129;1187;22189;-80
2021/10/01 05:45:44;;;;;;;43.20;37.70;;;;;;;5.47;74.59;101619.90;117201;1187;21965;-81
2021/10/01 05:48:32;;;;;;;48.00;37.40;;;;;;;5.48;74.85;101623.80;117105;1188;21886;-80
2021/10/01 05:51:20;;;;;;;49.00;40.40;;;;;;;5.54;75.12;101624.81;117275;1187;22053;-81
2021/10/01 05:56:57;;;;;;;47.70;39.70;;;;;;;5.69;75.48;101625.34;117103;1187;23531;-81
2021/10/01 05:59:40;;;;;;;47.10;40.70;;;;;;;5.79;75.54;101623.63;116987;1190;23425;-80
2021/10/01 06:02:19;;;;;;;45.30;39.80;;;;;;;5.84;75.36;101624.12;116872;1190;21874;-79
2021/10/01 06:04:52;;;;;;;44.20;39.30;;;;;;;5.86;75.14;101623.11;117054;1190;21911;-81
2021/10/01 06:07:22;;;;;;;50.10;39.10;;;;;;;5.86;75.04;101623.49;116943;1190;24052;-79
2021/10/01 06:09:52;;;;;;;42.00;35.00;;;;;;;5.86;75.08;101623.29;116972;1187;22856;-80
2021/10/01 06:12:21;;;;;;;42.00;32.60;;;;;;;5.90;75.31;101622.20;116719;1191;21908;-81
2021/10/01 06:14:50;;;;;;;44.80;35.80;;;;;;;5.96;75.43;101619.36;116815;1191;22101;-78
2021/10/01 06:17:19;;;;;;;40.50;34.20;;;;;;;6.03;75.66;101618.48;116816;1191;23473;-78
2021/10/01 06:19:52;;;;;;;40.40;34.70;;;;;;;6.13;75.72;101625.52;116808;1191;23439;-78
2021/10/01 06:22:22;;;;;;;42.10;33.20;;;;;;;6.22;75.77;101629.98;116792;1191;22110;-81
2021/10/01 06:24:51;;;;;;;39.60;34.70;;;;;;;6.31;75.86;101628.21;116838;1190;21879;-80
2021/10/01 06:27:20;;;;;;;39.60;35.00;;;;;;;6.44;76.01;101630.14;116859;1190;21904;-80
2021/10/01 06:29:50;;;;;;;41.80;34.60;;;;;;;6.57;76.13;101627.64;116892;1187;22927;-80
2021/10/01 06:32:20;;;;;;;44.50;36.00;;;;;;;6.71;76.11;101628.38;117025;1188;21904;-80
2021/10/01 06:34:50;;;;;;;40.10;34.30;;;;;;;6.85;76.16;101630.17;116955;1190;21909;-80
2021/10/01 06:37:19;;;;;;;42.90;31.50;;;;;;;7.02;76.31;101630.98;116813;1190;22310;-80
2021/10/01 06:39:49;;;;;;;32.40;28.20;;;;;;;7.22;76.44;101630.71;116910;1190;21925;-80
2021/10/01 06:42:19;;;;;;;30.00;25.20;;;;;;;7.45;76.45;101626.54;116608;1187;22053;-80
2021/10/01 06:44:56;;;;;;;28.30;23.20;;;;;;;7.67;76.21;101626.11;116787;1192;22533;-79
2021/10/01 06:48:20;;;;;;;29.70;22.40;;;;;;;7.91;76.14;101630.73;116750;1192;21892;-80
2021/10/01 08:19:28;;;;;;;12.20;8.60;;;;;;;16.90;50.17;101629.03;117142;1180;22293;-82
2021/10/01 08:21:58;;;;;;;11.70;8.40;;;;;;;16.87;49.54;101626.22;117056;1187;22904;-82
2021/10/01 08:24:31;;;;;;;8.80;7.80;;;;;;;16.90;50.02;101624.27;116982;1188;23436;-82
2021/10/01 08:27:01;;;;;;;14.80;9.10;;;;;;;17.08;49.96;101623.65;117084;1188;21942;-82
2021/10/01 08:29:32;;;;;;;13.80;10.00;;;;;;;17.28;49.80;101620.18;116999;1187;21895;-82
2021/10/01 08:32:04;;;;;;;10.70;8.30;;;;;;;17.51;49.05;101617.77;117122;1187;21924;-81
2021/10/01 08:34:42;;;;;;;15.90;7.90;;;;;;;17.59;47.97;101615.56;117094;1187;22902;-80
2021/10/01 08:37:14;;;;;;;9.60;6.80;;;;;;;17.61;47.59;101611.95;117031;1187;23563;-80
2021/10/01 08:39:43;;;;;;;12.20;8.40;;;;;;;17.62;47.81;101608.98;116763;1187;21902;-78
2021/10/01 08:42:26;;;;;;;11.50;8.70;;;;;;;17.74;48.22;101611.19;116728;1190;21889;-78
2021/10/01 08:44:56;;;;;;;10.80;8.20;;;;;;;17.88;47.58;101607.96;116817;1190;22894;-78
2021/10/01 08:47:26;;;;;;;14.80;9.40;;;;;;;17.98;46.97;101604.36;116661;1190;21917;-79
2021/10/01 08:50:00;;;;;;;11.70;7.60;;;;;;;17.97;46.23;101604.48;116745;1190;21903;-80
2021/10/01 08:52:30;;;;;;;9.90;8.10;;;;;;;17.97;46.03;101601.96;116730;1190;21895;-80
2021/10/01 08:55:00;;;;;;;10.70;7.50;;;;;;;17.98;46.08;101597.98;116721;1190;22624;-79
2021/10/01 08:57:31;;;;;;;11.30;8.20;;;;;;;18.03;46.27;101597.52;116801;1187;22992;-80
2021/10/01 09:00:05;;;;;;;9.40;7.30;;;;;;;18.07;45.81;101597.16;117120;1187;23631;-78
2021/10/01 09:02:34;;;;;;;12.70;7.70;;;;;;;18.17;46.02;101593.70;117167;1187;21881;-80
2021/10/01 09:05:05;;;;;;;11.40;7.40;;;;;;;18.21;45.53;101592.11;117107;1187;21994;-78
2021/10/01 09:07:35;;;;;;;11.10;8.50;;;;;;;18.22;45.29;101589.89;117013;1187;21903;-78
2021/10/01 09:10:13;;;;;;;14.30;11.60;;;;;;;18.25;45.46;101583.80;117139;1187;23432;-77
2021/10/01 09:12:53;;;;;;;13.80;11.50;;;;;;;18.42;45.66;101582.79;117040;1188;23743;-78
2021/10/01 09:15:22;;;;;;;11.70;10.50;;;;;;;18.61;45.48;101585.05;117119;1187;21901;-78
2021/10/01 09:17:58;;;;;;;8.60;7.80;;;;;;;18.84;45.32;101582.89;117210;1184;21878;-78
2021/10/01 09:20:28;;;;;;;12.10;8.90;;;;;;;18.96;44.12;101583.59;117015;1188;22947;-77
2021/10/01 09:23:25;;;;;;;10.30;8.60;;;;;;;19.08;43.99;101581.84;117106;1187;23709;-79
2021/10/01 09:26:17;;;;;;;9.40;7.60;;;;;;;19.10;43.30;101577.36;116984;1181;21879;-78
2021/10/01 09:29:07;;;;;;;8.30;7.30;;;;;;;19.03;42.43;101574.98;117023;1184;23574;-77
2021/10/01 09:31:42;;;;;;;11.60;7.90;;;;;;;19.00;42.50;101573.90;117095;1187;22992;-78
2021/10/01 09:34:24;;;;;;;11.30;7.50;;;;;;;19.12;42.65;101571.56;117079;1187;21900;-76
2021/10/01 09:37:06;;;;;;;12.20;9.70;;;;;;;19.26;42.71;101567.20;116991;1187;21895;-77
2021/10/01 09:39:40;;;;;;;8.40;6.60;;;;;;;19.43;41.52;101565.72;117110;1187;21920;-77
2021/10/01 09:42:23;;;;;;;7.60;6.10;;;;;;;19.54;40.95;101561.38;117025;1188;23469;-78
2021/10/01 09:45:03;;;;;;;8.70;6.60;;;;;;;19.61;40.33;101561.18;117122;1187;21890;-77
2021/10/01 09:47:36;;;;;;;28.60;25.80;;;;;;;19.68;40.14;101556.73;117112;1184;21889;-77
2021/10/01 09:50:22;;;;;;;18.70;16.70;;;;;;;19.81;39.88;101550.08;117117;1187;21878;-76
2021/10/01 09:52:54;;;;;;;10.60;9.10;;;;;;;19.93;39.73;101549.17;117044;1188;23432;-77
2021/10/01 09:55:38;;;;;;;10.00;7.50;;;;;;;20.16;39.89;101546.12;117030;1184;22919;-77
2021/10/01 09:58:23;;;;;;;12.50;6.40;;;;;;;20.34;38.98;101549.64;117040;1187;21886;-77
2021/10/01 10:00:53;;;;;;;8.90;5.70;;;;;;;20.44;38.36;101542.27;117082;1187;21953;-76
2021/10/01 10:03:25;;;;;;;9.30;7.90;;;;;;;20.56;38.23;101546.45;117083;1187;21907;-77
2021/10/01 10:06:07;;;;;;;9.30;7.80;;;;;;;20.59;37.77;101544.01;117109;1187;21875;-77
2021/10/01 10:08:40;;;;;;;6.80;5.90;;;;;;;20.64;36.91;101539.71;117122;1187;22180;-76
2021/10/01 10:11:14;;;;;;;6.80;4.90;;;;;;;20.74;36.80;101534.93;117138;1179;21884;-76
2021/10/01 10:13:53;;;;;;;7.00;4.90;;;;;;;20.80;36.33;101532.09;117006;1187;22946;-76
2021/10/01 10:16:26;;;;;;;6.10;4.50;;;;;;;20.90;35.87;101530.73;116992;1184;21888;-76
2021/10/01 10:19:06;;;;;;;5.70;3.40;;;;;;;20.86;35.26;101528.91;117107;1187;22993;-77
2021/10/01 10:21:36;;;;;;;6.60;4.40;;;;;;;20.85;35.66;101524.98;117078;1187;21876;-77
2021/10/01 10:24:06;;;;;;;8.20;3.40;;;;;;;20.95;35.81;101517.95;117103;1187;21900;-77
2021/10/01 10:26:35;;;;;;;5.20;4.60;;;;;;;21.06;35.06;101519.27;117055;1187;23546;-77
2021/10/01 10:29:09;;;;;;;8.20;5.50;;;;;;;21.08;35.07;101510.95;117097;1187;22853;-77
2021/10/01 10:31:46;;;;;;;5.80;4.00;;;;;;;21.22;34.74;101508.02;117116;1187;21967;-76
2021/10/01 10:34:27;;;;;;;5.40;4.70;;;;;;;21.38;34.91;101512.56;117089;1187;21881;-76
2021/10/01 10:37:07;;;;;;;7.60;4.60;;;;;;;21.57;33.96;101509.48;117038;1176;22998;-78
2021/10/01 10:39:39;;;;;;;5.80;4.40;;;;;;;21.69;34.05;101506.76;117103;1179;21881;-76
2021/10/01 10:42:13;;;;;;;8.40;4.20;;;;;;;21.77;34.02;101499.98;117232;1187;21907;-75
2021/10/01 10:45:18;;;;;;;8.90;8.00;;;;;;;21.98;34.05;101497.70;117155;1187;21888;-76
2021/10/01 10:48:07;;;;;;;8.10;5.20;;;;;;;21.98;33.17;101497.63;116837;1190;23614;-77
2021/10/01 10:50:45;;;;;;;5.20;3.70;;;;;;;21.68;32.87;101491.58;116722;1190;21894;-77
2021/10/01 10:53:19;;;;;;;8.40;4.10;;;;;;;21.29;33.30;101488.50;116722;1187;21887;-76
2021/10/01 10:55:49;;;;;;;7.50;3.90;;;;;;;21.07;33.67;101487.46;116758;1190;21886;-77
2021/10/01 10:58:22;;;;;;;6.00;3.60;;;;;;;20.84;33.92;101483.70;116878;1190;21906;-77
2021/10/01 11:01:02;;;;;;;4.70;2.70;;;;;;;20.61;33.93;101478.58;116822;1190;23471;-78
2021/10/01 11:03:33;;;;;;;5.50;3.10;;;;;;;20.22;33.97;101476.46;116802;1186;21888;-77
2021/10/01 11:06:08;;;;;;;4.10;2.50;;;;;;;19.87;34.17;101473.08;116878;1187;23068;-77
2021/10/01 11:08:44;;;;;;;4.70;2.70;;;;;;;19.55;34.41;101469.77;117093;1184;23533;-77
2021/10/01 11:11:38;;;;;;;5.80;2.80;;;;;;;19.22;34.62;101467.58;117156;1183;24165;-76
2021/10/01 11:14:24;;;;;;;7.10;2.60;;;;;;;18.89;34.96;101463.61;117116;1187;23431;-77
2021/10/01 11:16:53;;;;;;;5.90;2.90;;;;;;;18.51;35.43;101463.54;117191;1187;21881;-78
2021/10/01 11:19:45;;;;;;;4.90;3.30;;;;;;;18.16;35.90;101460.92;117043;1180;22956;-77
2021/10/01 11:22:44;;;;;;;5.30;2.90;;;;;;;17.88;36.28;101460.45;117007;1187;21884;-77
2021/10/01 11:25:17;;;;;;;4.20;2.50;;;;;;;17.75;36.96;101455.89;117000;1184;23583;-77
2021/10/01 11:28:14;;;;;;;3.40;2.50;;;;;;;17.66;37.20;101448.71;117128;1187;21914;-77
2021/10/01 11:30:54;;;;;;;5.00;3.20;;;;;;;17.57;37.29;101442.69;116990;1187;22006;-77
2021/10/01 11:33:45;;;;;;;7.90;2.80;;;;;;;17.50;37.62;101439.92;117042;1187;21894;-77
2021/10/01 11:36:15;;;;;;;4.10;2.40;;;;;;;17.45;38.13;101433.17;116981;1187;22909;-78
2021/10/01 11:38:44;;;;;;;4.90;2.70;;;;;;;17.46;38.07;101431.27;116972;1188;21892;-76
2021/10/01 11:41:48;;;;;;;5.70;2.90;;;;;;;17.41;38.20;101428.42;117112;1188;21871;-76
2021/10/01 11:44:24;;;;;;;5.80;2.90;;;;;;;17.35;38.22;101426.80;116937;1188;21935;-77
2021/10/01 11:46:55;;;;;;;5.30;3.00;;;;;;;17.29;38.19;101423.10;116794;1190;22213;-76
2021/10/01 11:49:27;;;;;;;4.00;2.60;;;;;;;17.22;38.36;101420.98;116749;1187;21896;-77
2021/10/01 11:52:05;;;;;;;5.50;2.60;;;;;;;17.20;38.60;101419.60;116662;1190;22890;-77
2021/10/01 11:54:37;;;;;;;4.90;3.10;;;;;;;17.23;38.87;101418.34;116836;1187;21888;-77
2021/10/01 11:57:08;;;;;;;6.30;3.10;;;;;;;17.24;38.81;101413.23;116737;1190;22906;-77
2021/10/01 12:00:00;;;;;;;5.90;2.80;;;;;;;17.23;38.97;101412.91;116771;1190;21939;-78
2021/10/01 12:02:45;;;;;;;4.10;2.10;;;;;;;17.22;39.10;101410.31;116767;1190;21895;-78
2021/10/01 12:05:33;;;;;;;4.00;2.10;;;;;;;17.21;39.00;101408.25;116909;1189;21895;-78
2021/10/01 12:08:12;;;;;;;4.90;2.20;;;;;;;17.17;38.54;101400.63;116825;1189;22907;-78
2021/10/01 12:10:52;;;;;;;5.30;2.20;;;;;;;17.12;38.61;101397.04;116983;1188;23540;-77
2021/10/01 12:13:39;;;;;;;6.10;4.50;;;;;;;17.12;38.66;101393.34;116932;1188;23480;-77
2021/10/01 12:16:12;;;;;;;4.40;2.40;;;;;;;17.17;38.71;101390.64;116952;1184;23426;-77
2021/10/01 12:18:59;;;;;;;5.80;1.70;;;;;;;17.17;38.45;101393.77;116960;1180;22636;-77
2021/10/01 12:21:29;;;;;;;3.90;1.90;;;;;;;17.12;38.13;101386.96;116925;1188;22234;-78
2021/10/01 12:24:14;;;;;;;3.10;1.70;;;;;;;17.08;37.96;101382.81;116946;1185;22067;-78
2021/10/01 12:26:45;;;;;;;4.50;2.20;;;;;;;17.06;38.16;101379.71;117011;1179;23607;-76
2021/10/01 12:29:25;;;;;;;5.60;2.30;;;;;;;17.07;38.08;101374.88;116953;1188;23537;-77
2021/10/01 12:31:56;;;;;;;3.70;1.80;;;;;;;17.07;37.76;101369.20;116908;1187;22905;-77
2021/10/01 12:34:42;;;;;;;5.90;2.10;;;;;;;17.06;37.78;101366.48;117024;1180;22628;-78
2021/10/01 12:37:18;;;;;;;4.40;2.10;;;;;;;17.02;37.77;101359.52;116675;1191;23551;-77
2021/10/01 12:39:54;;;;;;;3.00;1.70;;;;;;;16.98;37.94;101356.81;116712;1187;21911;-77
2021/10/01 12:42:37;;;;;;;4.30;2.70;;;;;;;16.97;37.95;101356.05;116653;1190;22075;-78
2021/10/01 12:45:12;;;;;;;5.30;2.30;;;;;;;16.95;37.86;101351.58;116674;1191;23536;-78
2021/10/01 12:47:47;;;;;;;5.30;2.70;;;;;;;16.97;37.91;101346.94;116717;1178;22318;-77
2021/10/01 12:50:35;;;;;;;5.40;2.60;;;;;;;17.02;38.06;101339.79;116692;1191;21908;-79
2021/10/01 12:53:08;;;;;;;3.80;1.90;;;;;;;17.06;38.06;101336.59;116695;1191;21898;-77
2021/10/01 12:55:38;;;;;;;6.20;2.50;;;;;;;17.02;37.92;101335.63;116669;1191;21888;-77
2021/10/01 12:58:17;;;;;;;5.20;2.90;;;;;;;16.99;37.91;101333.98;116676;1191;22805;-77
2021/10/01 13:00:49;;;;;;;15.40;3.00;;;;;;;16.99;38.05;101327.90;116667;1191;23537;-78
2021/10/01 13:03:18;;;;;;;3.80;2.20;;;;;;;16.98;38.21;101322.48;117103;1187;22210;-77
2021/10/01 13:05:48;;;;;;;4.80;2.50;;;;;;;17.00;38.22;101318.60;117029;1187;23632;-78
2021/10/01 13:08:20;;;;;;;4.70;2.70;;;;;;;17.03;38.29;101325.20;117112;1187;21894;-78
2021/10/01 13:10:56;;;;;;;3.70;2.30;;;;;;;16.97;38.11;101316.48;117090;1187;22201;-77
2021/10/01 13:13:34;;;;;;;6.60;2.60;;;;;;;16.95;38.36;101314.84;117181;1187;21873;-77
2021/10/01 13:16:13;;;;;;;3.80;2.20;;;;;;;16.95;38.39;101310.54;116930;1190;22572;-78
2021/10/01 13:18:43;;;;;;;6.20;2.90;;;;;;;16.99;38.45;101310.25;116529;1190;22662;-77
2021/10/01 13:21:23;;;;;;;6.50;3.00;;;;;;;17.02;38.56;101310.82;116454;1193;23468;-77